Time;durP1;ratioP1;P1;durP2;ratioP2;P2;SDS_P1;SDS_P2;PMS_P1;PMS_P2;Temp;Humidity;BMP_temperature;BMP_pressure;BME280_temperature;BME280_humidity;BME280_pressure;Samples;Min_cycle;Max_cycle;Signal;HPM_P1;HPM_P2
2023/08/10 00:00:29;;;;;;;3.40;2.40;;;15.70;93.90;;;;;;5078652;28;20486;-70
2023/08/10 00:02:56;;;;;;;4.47;2.40;;;15.70;93.90;;;;;;5082975;28;20449;-70
2023/08/10 00:05:24;;;;;;;2.83;2.27;;;15.60;93.80;;;;;;5078522;28;20529;-70
2023/08/10 00:07:51;;;;;;;2.97;2.42;;;15.60;93.80;;;;;;5075082;28;20872;-70
2023/08/10 00:10:18;;;;;;;4.07;2.57;;;15.60;94.00;;;;;;5073144;28;20854;-70
2023/08/10 00:12:45;;;;;;;3.70;2.37;;;15.60;94.20;;;;;;5076968;28;20908;-70
2023/08/10 00:15:11;;;;;;;4.87;2.70;;;15.60;94.50;;;;;;5078887;28;20430;-70
2023/08/10 00:17:38;;;;;;;3.47;2.22;;;15.60;95.10;;;;;;5081235;28;20429;-72
2023/08/10 00:20:07;;;;;;;3.72;2.20;;;15.50;94.90;;;;;;5077569;28;20486;-70
2023/08/10 00:22:35;;;;;;;4.23;2.90;;;15.50;94.60;;;;;;5079429;28;20936;-70
2023/08/10 00:25:02;;;;;;;5.38;2.85;;;15.50;94.80;;;;;;5079023;28;20402;-71
2023/08/10 00:27:29;;;;;;;6.00;2.50;;;15.40;94.40;;;;;;5082877;28;20488;-69
2023/08/10 00:29:56;;;;;;;3.50;2.30;;;15.40;94.60;;;;;;5081126;28;20483;-71
2023/08/10 00:32:23;;;;;;;5.72;2.22;;;15.40;95.00;;;;;;5080534;28;20433;-71
2023/08/10 00:34:50;;;;;;;4.30;2.30;;;15.40;95.60;;;;;;5077887;28;20422;-70
2023/08/10 00:37:16;;;;;;;4.07;2.37;;;15.40;95.30;;;;;;5076585;28;20862;-70
2023/08/10 00:39:44;;;;;;;3.35;2.10;;;15.30;94.70;;;;;;5074469;28;20522;-70
2023/08/10 00:42:12;;;;;;;3.95;2.10;;;15.40;95.00;;;;;;5084049;28;20517;-70
2023/08/10 00:44:40;;;;;;;3.60;2.33;;;15.30;94.50;;;;;;5082007;28;20485;-70
2023/08/10 00:47:07;;;;;;;4.60;2.33;;;15.30;95.10;;;;;;5087099;28;20441;-70
2023/08/10 00:49:34;;;;;;;5.30;2.20;;;15.30;95.00;;;;;;5074415;28;20823;-70
2023/08/10 00:52:02;;;;;;;4.50;2.35;;;15.30;95.40;;;;;;5079623;28;20544;-70
2023/08/10 00:54:28;;;;;;;3.20;2.30;;;15.30;94.40;;;;;;5074214;28;21133;-70
2023/08/10 00:56:57;;;;;;;5.00;3.20;;;15.30;94.60;;;;;;5076832;28;20417;-70
2023/08/10 00:59:24;;;;;;;4.67;2.70;;;15.30;94.20;;;;;;5081002;28;20551;-70
2023/08/10 01:01:51;;;;;;;3.95;2.10;;;15.30;94.50;;;;;;5079158;28;20444;-70
2023/08/10 01:04:18;;;;;;;3.10;2.13;;;15.30;95.30;;;;;;5076166;28;20427;-72
2023/08/10 01:06:49;;;;;;;4.40;2.22;;;15.40;95.60;;;;;;5077025;28;20417;-70
2023/08/10 01:09:21;;;;;;;5.05;2.20;;;15.40;95.00;;;;;;5082003;28;20449;-69
2023/08/10 01:11:58;;;;;;;4.15;2.40;;;15.50;94.50;;;;;;5077425;28;20448;-70
2023/08/10 01:14:33;;;;;;;3.65;2.22;;;15.50;93.90;;;;;;5074294;28;20924;-70
2023/08/10 01:17:02;;;;;;;3.63;2.22;;;15.50;93.90;;;;;;5078449;28;20750;-70
2023/08/10 01:19:35;;;;;;;3.05;2.05;;;15.50;94.10;;;;;;5078383;28;20554;-70
2023/08/10 01:22:06;;;;;;;3.03;2.20;;;15.60;94.00;;;;;;5093716;22;20452;-70
2023/08/10 01:24:41;;;;;;;3.63;2.35;;;15.60;93.90;;;;;;5089171;28;20524;-71
2023/08/10 01:27:11;;;;;;;4.13;2.17;;;15.60;93.70;;;;;;5086782;28;20402;-70
2023/08/10 01:29:38;;;;;;;4.40;2.20;;;15.50;93.60;;;;;;5081172;28;20427;-70
2023/08/10 01:32:06;;;;;;;4.93;2.10;;;15.50;94.10;;;;;;5097265;28;20426;-69
2023/08/10 01:34:32;;;;;;;3.65;2.65;;;15.50;93.90;;;;;;5096717;28;20465;-70
2023/08/10 01:36:59;;;;;;;4.97;2.27;;;15.50;94.10;;;;;;5080960;28;20418;-70
2023/08/10 01:39:26;;;;;;;4.60;2.20;;;15.40;94.20;;;;;;5110354;28;20917;-70
2023/08/10 01:41:53;;;;;;;5.68;2.20;;;15.40;94.50;;;;;;5102370;28;20424;-71
2023/08/10 01:44:21;;;;;;;3.08;2.30;;;15.30;94.50;;;;;;5095715;28;20506;-70
2023/08/10 01:46:49;;;;;;;4.15;2.20;;;15.30;94.80;;;;;;5088621;28;20919;-69
2023/08/10 01:49:18;;;;;;;4.20;2.40;;;15.30;94.90;;;;;;5090024;28;20419;-69
2023/08/10 01:51:47;;;;;;;4.80;2.40;;;15.30;95.30;;;;;;5091417;28;20436;-69
2023/08/10 01:54:16;;;;;;;3.00;2.10;;;15.30;95.40;;;;;;5096858;28;20408;-69
2023/08/10 01:56:43;;;;;;;4.25;2.33;;;15.30;94.40;;;;;;5091787;28;20437;-69
2023/08/10 01:59:10;;;;;;;4.03;2.50;;;15.30;95.00;;;;;;5099768;28;20420;-72
2023/08/10 02:01:38;;;;;;;3.93;2.30;;;15.40;95.40;;;;;;5095665;28;20421;-71
2023/08/10 02:04:05;;;;;;;4.25;2.50;;;15.40;93.80;;;;;;5095146;27;20923;-69
2023/08/10 02:06:37;;;;;;;3.60;2.10;;;15.40;93.90;;;;;;5102011;28;20413;-70
2023/08/10 02:09:05;;;;;;;4.63;2.20;;;15.40;92.40;;;;;;5097689;28;20412;-70
2023/08/10 02:11:31;;;;;;;3.65;2.00;;;15.40;92.30;;;;;;5105236;28;20420;-69
2023/08/10 02:13:58;;;;;;;4.07;2.00;;;15.40;91.70;;;;;;5096107;28;20448;-70
2023/08/10 02:16:25;;;;;;;5.35;2.20;;;15.40;91.40;;;;;;5090560;28;20512;-70
2023/08/10 02:18:53;;;;;;;2.38;2.00;;;15.40;91.70;;;;;;5104833;28;20430;-70
2023/08/10 02:21:23;;;;;;;4.07;2.00;;;15.40;91.60;;;;;;5101022;28;20813;-70
2023/08/10 02:23:50;;;;;;;3.30;2.20;;;15.40;90.90;;;;;;5091644;28;20506;-70
2023/08/10 02:26:17;;;;;;;3.85;2.20;;;15.40;91.10;;;;;;5099014;28;20784;-71
2023/08/10 02:28:44;;;;;;;4.95;2.45;;;15.30;90.70;;;;;;5095382;28;20758;-70
2023/08/10 02:31:11;;;;;;;3.58;2.22;;;15.30;90.70;;;;;;5094854;28;20434;-72
2023/08/10 02:33:38;;;;;;;2.45;2.00;;;15.20;91.00;;;;;;5087681;28;20415;-68
2023/08/10 02:36:06;;;;;;;4.50;2.25;;;15.20;91.00;;;;;;5097499;28;20421;-70
2023/08/10 02:38:33;;;;;;;5.03;2.22;;;15.10;91.30;;;;;;5093618;28;20900;-70
2023/08/10 02:41:00;;;;;;;3.30;1.77;;;15.10;91.40;;;;;;5102228;28;20412;-70
2023/08/10 02:43:27;;;;;;;7.35;2.33;;;15.10;91.60;;;;;;5090618;28;20448;-70
2023/08/10 02:45:54;;;;;;;2.63;1.95;;;15.00;91.70;;;;;;5086414;28;20423;-70
2023/08/10 02:48:21;;;;;;;4.03;2.08;;;15.00;92.10;;;;;;5094247;28;20409;-70
2023/08/10 02:50:48;;;;;;;3.17;2.10;;;14.90;92.30;;;;;;5100974;28;20418;-71
2023/08/10 02:53:16;;;;;;;3.42;2.00;;;14.90;92.10;;;;;;5105735;28;20426;-71
2023/08/10 02:55:44;;;;;;;2.78;1.85;;;14.80;91.60;;;;;;5093470;28;20411;-70
2023/08/10 02:58:10;;;;;;;4.28;2.35;;;14.80;92.30;;;;;;5103659;27;20426;-70
2023/08/10 03:00:37;;;;;;;3.13;2.03;;;14.70;92.60;;;;;;5091953;28;20464;-71
2023/08/10 03:03:05;;;;;;;3.50;2.30;;;14.70;93.00;;;;;;5083189;28;20426;-70
2023/08/10 03:05:32;;;;;;;3.30;2.20;;;14.70;93.30;;;;;;5105255;28;20510;-70
2023/08/10 03:07:58;;;;;;;5.10;2.10;;;14.60;93.50;;;;;;5084655;28;21022;-70
2023/08/10 03:10:27;;;;;;;3.55;2.00;;;14.60;93.80;;;;;;5096541;28;20424;-69
2023/08/10 03:12:53;;;;;;;3.65;2.13;;;14.60;94.10;;;;;;5097672;28;20426;-70
2023/08/10 03:15:21;;;;;;;4.07;2.25;;;14.50;94.30;;;;;;5090655;28;20429;-70
2023/08/10 03:17:49;;;;;;;4.50;2.10;;;14.50;94.70;;;;;;5099755;28;20432;-70
2023/08/10 03:20:16;;;;;;;4.72;2.33;;;14.50;95.40;;;;;;5102265;28;20484;-69
2023/08/10 03:22:43;;;;;;;3.42;2.47;;;14.40;95.10;;;;;;5089600;28;20469;-71
2023/08/10 03:25:11;;;;;;;3.22;2.20;;;14.40;94.80;;;;;;5088108;28;20441;-70
2023/08/10 03:27:39;;;;;;;3.70;2.57;;;14.40;95.00;;;;;;5080042;28;20430;-69
2023/08/10 03:30:07;;;;;;;5.57;2.58;;;14.30;95.20;;;;;;5090446;28;20455;-70
2023/08/10 03:32:34;;;;;;;3.67;2.50;;;14.30;95.30;;;;;;5086017;28;20420;-70
2023/08/10 03:35:01;;;;;;;3.80;2.83;;;14.20;95.90;;;;;;5096172;28;20420;-70
2023/08/10 03:37:28;;;;;;;4.72;2.60;;;14.20;96.40;;;;;;5092772;28;20489;-69
2023/08/10 03:39:54;;;;;;;5.90;2.50;;;14.20;96.30;;;;;;5092289;28;20443;-70
2023/08/10 03:42:21;;;;;;;4.80;2.83;;;14.20;96.50;;;;;;5099740;28;20409;-70
2023/08/10 03:44:49;;;;;;;3.60;2.70;;;14.10;96.50;;;;;;5084426;27;20428;-70
2023/08/10 03:47:16;;;;;;;3.88;2.78;;;14.10;97.20;;;;;;5088355;28;20441;-69
2023/08/10 03:49:42;;;;;;;5.50;3.05;;;14.00;96.60;;;;;;5104429;28;20404;-70
2023/08/10 03:52:09;;;;;;;7.07;2.80;;;14.00;96.60;;;;;;5097081;28;20441;-70
2023/08/10 03:54:36;;;;;;;5.30;2.50;;;14.00;96.80;;;;;;5087385;28;20842;-70
2023/08/10 03:57:03;;;;;;;3.75;2.30;;;13.90;96.70;;;;;;5101988;28;20419;-70
2023/08/10 03:59:30;;;;;;;4.70;2.80;;;13.90;96.70;;;;;;5092100;28;20425;-70
2023/08/10 04:01:58;;;;;;;4.30;2.25;;;14.00;97.10;;;;;;5088779;28;20501;-70
2023/08/10 04:04:24;;;;;;;3.30;2.30;;;14.00;97.00;;;;;;5084875;28;20927;-70
2023/08/10 04:06:51;;;;;;;5.25;2.47;;;13.90;96.30;;;;;;5089462;28;20472;-70
2023/08/10 04:09:18;;;;;;;3.50;2.50;;;13.90;97.00;;;;;;5099131;28;20414;-70
2023/08/10 04:11:45;;;;;;;4.07;2.70;;;13.90;97.00;;;;;;5107216;28;20755;-69
2023/08/10 04:14:11;;;;;;;3.75;2.42;;;14.00;96.60;;;;;;5098496;28;20429;-70
2023/08/10 04:16:38;;;;;;;5.65;2.70;;;14.00;96.30;;;;;;5091006;28;20428;-67
2023/08/10 04:19:06;;;;;;;3.93;2.53;;;14.00;96.00;;;;;;5100284;28;20452;-69
2023/08/10 04:21:33;;;;;;;6.50;2.78;;;14.00;96.30;;;;;;5085420;28;20419;-69
2023/08/10 04:24:00;;;;;;;4.90;2.58;;;14.00;95.80;;;;;;5080355;28;20413;-69
2023/08/10 04:26:27;;;;;;;6.40;2.55;;;14.10;95.50;;;;;;5098226;28;20428;-68
2023/08/10 04:28:53;;;;;;;3.17;2.30;;;14.10;95.60;;;;;;5092908;28;20422;-68
2023/08/10 04:31:20;;;;;;;3.85;2.90;;;14.10;95.00;;;;;;5090245;28;20428;-69
2023/08/10 04:33:47;;;;;;;2.97;2.60;;;14.10;95.10;;;;;;5089744;28;20429;-67
2023/08/10 04:36:15;;;;;;;5.10;2.83;;;14.20;95.90;;;;;;5081030;28;20435;-67
2023/08/10 04:38:42;;;;;;;6.43;2.80;;;14.20;94.80;;;;;;5085477;28;20918;-68
2023/08/10 04:41:09;;;;;;;4.25;2.83;;;14.20;94.70;;;;;;5106358;28;20431;-68
2023/08/10 04:43:36;;;;;;;5.43;2.90;;;14.20;94.20;;;;;;5098427;28;20431;-68
2023/08/10 04:46:03;;;;;;;3.53;2.50;;;14.20;94.40;;;;;;5095180;28;20521;-68
2023/08/10 04:48:30;;;;;;;4.28;2.70;;;14.20;94.60;;;;;;5096124;28;20429;-68
2023/08/10 04:50:56;;;;;;;4.10;2.70;;;14.30;94.90;;;;;;5101329;28;20428;-68
2023/08/10 04:53:24;;;;;;;5.18;2.83;;;14.30;95.40;;;;;;5087528;28;20417;-68
2023/08/10 04:55:51;;;;;;;3.03;2.45;;;14.40;94.20;;;;;;5095607;28;20424;-68
2023/08/10 04:58:18;;;;;;;5.38;3.47;;;14.40;93.60;;;;;;5090637;28;20966;-68
2023/08/10 05:00:45;;;;;;;4.65;3.00;;;14.40;94.30;;;;;;5083627;28;20433;-68
2023/08/10 05:03:12;;;;;;;4.53;3.00;;;14.50;94.10;;;;;;5086755;28;20431;-68
2023/08/10 05:05:39;;;;;;;3.95;2.40;;;14.50;93.80;;;;;;5080181;28;20438;-67
2023/08/10 05:08:07;;;;;;;6.07;2.60;;;14.60;93.40;;;;;;5093433;28;20410;-68
2023/08/10 05:10:35;;;;;;;5.38;3.10;;;14.60;93.80;;;;;;5104161;28;20426;-68
2023/08/10 05:13:02;;;;;;;4.10;2.80;;;14.60;93.50;;;;;;5091195;28;20429;-68
2023/08/10 05:15:29;;;;;;;4.00;2.73;;;14.70;94.20;;;;;;5088706;28;20434;-67
2023/08/10 05:17:56;;;;;;;4.28;2.80;;;14.70;94.20;;;;;;5105466;28;20467;-67
2023/08/10 05:20:24;;;;;;;6.13;2.30;;;14.80;94.90;;;;;;5104894;28;20446;-67
2023/08/10 05:22:51;;;;;;;5.18;2.70;;;14.80;93.70;;;;;;5085298;28;20425;-68
2023/08/10 05:25:18;;;;;;;9.55;2.80;;;14.90;93.20;;;;;;5087699;28;20461;-66
2023/08/10 05:27:46;;;;;;;4.45;2.60;;;15.00;92.50;;;;;;5098506;28;20404;-67
2023/08/10 05:30:13;;;;;;;3.65;2.70;;;15.00;92.10;;;;;;5090965;28;20430;-66
2023/08/10 05:32:43;;;;;;;5.57;2.40;;;15.10;92.00;;;;;;5092456;28;20423;-67
2023/08/10 05:35:11;;;;;;;3.10;2.30;;;15.10;91.90;;;;;;5098052;28;20517;-69
2023/08/10 05:37:39;;;;;;;5.40;2.78;;;15.20;91.90;;;;;;5099059;28;20410;-67
2023/08/10 05:40:09;;;;;;;4.38;2.38;;;15.20;92.00;;;;;;5086503;28;20512;-68
2023/08/10 05:42:36;;;;;;;4.38;2.40;;;15.20;90.90;;;;;;5107796;28;20520;-67
2023/08/10 05:45:06;;;;;;;4.33;2.70;;;15.30;91.30;;;;;;5089351;27;20793;-67
2023/08/10 05:47:33;;;;;;;3.67;2.50;;;15.30;91.20;;;;;;5099281;28;20896;-69
2023/08/10 05:49:59;;;;;;;4.30;2.60;;;15.30;91.50;;;;;;5092560;28;20932;-67
2023/08/10 05:52:26;;;;;;;5.05;2.70;;;15.40;91.50;;;;;;5108381;28;20423;-68
2023/08/10 05:54:53;;;;;;;4.82;2.72;;;15.40;91.20;;;;;;5093546;27;20426;-68
2023/08/10 05:57:20;;;;;;;5.78;2.60;;;15.40;91.50;;;;;;5093744;28;20408;-67
2023/08/10 05:59:47;;;;;;;4.55;3.00;;;15.30;91.80;;;;;;5095492;28;20433;-68
2023/08/10 06:02:15;;;;;;;4.60;2.42;;;15.30;91.70;;;;;;5083263;28;20724;-66
2023/08/10 06:04:42;;;;;;;3.90;2.72;;;15.30;91.60;;;;;;5098031;28;20419;-67
2023/08/10 06:07:09;;;;;;;4.60;2.90;;;15.20;91.10;;;;;;5097901;28;20421;-69
2023/08/10 06:09:36;;;;;;;5.85;2.60;;;15.20;91.20;;;;;;5092587;28;20894;-68
2023/08/10 06:12:03;;;;;;;3.78;2.40;;;15.30;91.70;;;;;;5105767;27;20461;-67
2023/08/10 06:14:30;;;;;;;5.63;2.90;;;15.30;91.80;;;;;;5090916;28;20430;-67
2023/08/10 06:16:57;;;;;;;5.00;3.22;;;15.30;91.70;;;;;;5098658;28;20403;-67
2023/08/10 06:19:25;;;;;;;5.03;2.60;;;15.20;91.60;;;;;;5093295;28;20426;-67
2023/08/10 06:21:52;;;;;;;4.53;2.70;;;15.30;92.00;;;;;;5103548;28;20878;-67
2023/08/10 06:24:18;;;;;;;4.45;2.70;;;15.30;91.90;;;;;;5098697;28;21092;-67
2023/08/10 06:26:45;;;;;;;6.03;3.03;;;15.30;91.70;;;;;;5095533;28;20408;-67
2023/08/10 06:29:12;;;;;;;4.65;3.10;;;15.40;91.40;;;;;;5093184;28;20425;-67
2023/08/10 06:31:40;;;;;;;4.07;2.60;;;15.40;91.30;;;;;;5084728;28;20428;-66
2023/08/10 06:34:06;;;;;;;6.97;2.60;;;15.40;90.60;;;;;;5091913;28;20433;-66
2023/08/10 06:36:34;;;;;;;5.67;2.80;;;15.40;90.80;;;;;;5094372;28;20413;-68
2023/08/10 06:39:02;;;;;;;3.75;3.08;;;15.40;91.00;;;;;;5088660;28;20776;-66
2023/08/10 06:41:29;;;;;;;5.45;2.88;;;15.40;91.00;;;;;;5092505;28;20486;-68
2023/08/10 06:43:56;;;;;;;5.35;3.30;;;15.50;90.90;;;;;;5081146;28;20440;-66
2023/08/10 06:46:23;;;;;;;4.63;3.57;;;15.50;91.30;;;;;;5086240;28;20919;-66
2023/08/10 06:48:49;;;;;;;6.00;3.25;;;15.60;91.10;;;;;;5090698;28;20504;-67
2023/08/10 06:51:16;;;;;;;6.25;3.30;;;15.70;91.00;;;;;;5090985;28;20425;-65
2023/08/10 06:53:45;;;;;;;4.18;2.70;;;15.80;90.80;;;;;;5093332;28;20964;-67
2023/08/10 06:56:11;;;;;;;6.47;3.30;;;15.90;90.50;;;;;;5091475;28;20406;-68
2023/08/10 06:58:38;;;;;;;5.43;2.58;;;15.90;90.10;;;;;;5086539;28;20428;-68
2023/08/10 07:01:05;;;;;;;4.72;2.83;;;16.00;89.50;;;;;;5089749;28;20422;-68
2023/08/10 07:03:32;;;;;;;6.65;3.50;;;16.10;89.60;;;;;;5094659;28;20440;-68
2023/08/10 07:05:59;;;;;;;5.07;2.45;;;16.10;88.50;;;;;;5089426;28;20433;-67
2023/08/10 07:08:25;;;;;;;4.60;2.67;;;16.20;87.30;;;;;;5088477;28;20484;-68
2023/08/10 07:10:53;;;;;;;4.88;2.30;;;16.30;87.30;;;;;;5082824;28;20426;-65
2023/08/10 07:13:20;;;;;;;6.10;3.00;;;16.30;86.70;;;;;;5083079;28;20444;-68
2023/08/10 07:15:47;;;;;;;4.93;2.23;;;16.40;85.80;;;;;;5080676;28;20437;-67
2023/08/10 07:18:15;;;;;;;5.40;2.20;;;16.50;84.50;;;;;;5088522;28;20487;-66
2023/08/10 07:20:41;;;;;;;3.17;1.98;;;16.60;85.00;;;;;;5085621;28;20954;-70
2023/08/10 07:23:08;;;;;;;3.47;1.90;;;16.70;82.30;;;;;;5083761;22;20446;-70
2023/08/10 07:25:36;;;;;;;4.65;2.15;;;16.80;81.80;;;;;;5071087;28;20460;-70
2023/08/10 07:28:05;;;;;;;2.95;2.00;;;16.80;81.70;;;;;;5071808;28;20587;-70
2023/08/10 07:30:32;;;;;;;3.40;2.10;;;16.90;81.60;;;;;;5069874;28;20458;-70
2023/08/10 07:32:58;;;;;;;5.85;2.20;;;17.10;81.20;;;;;;5091953;28;20814;-70
2023/08/10 07:35:26;;;;;;;3.35;1.85;;;17.20;80.40;;;;;;5092625;28;20435;-70
2023/08/10 07:37:53;;;;;;;4.55;1.88;;;17.30;77.70;;;;;;5092002;28;20503;-70
2023/08/10 07:40:20;;;;;;;2.67;1.50;;;17.40;76.90;;;;;;5093665;28;20503;-70
2023/08/10 07:42:47;;;;;;;3.30;1.50;;;17.50;75.30;;;;;;5087349;28;20524;-69
2023/08/10 07:45:15;;;;;;;3.35;1.60;;;17.60;74.50;;;;;;5091120;28;20432;-70
2023/08/10 07:47:42;;;;;;;3.13;1.60;;;17.70;73.50;;;;;;5090192;27;20439;-70
2023/08/10 07:50:09;;;;;;;2.92;1.70;;;17.80;73.60;;;;;;5093020;28;20728;-70
2023/08/10 07:52:37;;;;;;;3.35;1.50;;;18.00;72.70;;;;;;5091231;28;20526;-70
2023/08/10 07:55:05;;;;;;;4.20;1.98;;;18.10;70.30;;;;;;5088474;28;20451;-70
2023/08/10 07:57:32;;;;;;;3.88;1.80;;;18.20;70.70;;;;;;5088868;28;22002;-70
2023/08/10 08:00:04;;;;;;;2.80;1.90;;;18.40;71.40;;;;;;5095371;28;20434;-70
2023/08/10 08:02:32;;;;;;;2.97;2.10;;;18.50;71.90;;;;;;5095744;28;20548;-70
2023/08/10 08:04:58;;;;;;;4.70;1.90;;;18.70;70.90;;;;;;5094115;27;20780;-70
2023/08/10 08:07:26;;;;;;;3.20;1.67;;;18.90;69.90;;;;;;5094393;27;20467;-70
2023/08/10 08:09:52;;;;;;;4.15;1.60;;;19.10;70.60;;;;;;5095358;27;21048;-70
2023/08/10 08:12:19;;;;;;;3.58;1.65;;;19.30;68.30;;;;;;5096882;28;20431;-70
2023/08/10 08:14:46;;;;;;;4.63;1.83;;;19.50;66.30;;;;;;5088832;28;20459;-71
2023/08/10 08:17:12;;;;;;;2.78;1.35;;;19.80;64.40;;;;;;5085260;28;20488;-71
2023/08/10 08:19:40;;;;;;;2.20;1.50;;;19.90;64.20;;;;;;5087708;28;20683;-70
2023/08/10 08:22:07;;;;;;;3.10;1.40;;;20.10;64.60;;;;;;5097283;28;20706;-70
2023/08/10 08:24:34;;;;;;;3.60;1.70;;;20.30;62.10;;;;;;5099745;28;20412;-70
2023/08/10 08:27:01;;;;;;;3.60;1.85;;;20.60;64.90;;;;;;5095151;28;20435;-67
2023/08/10 08:29:27;;;;;;;2.55;1.60;;;20.70;62.30;;;;;;5094703;28;20448;-69
2023/08/10 08:31:54;;;;;;;3.17;1.55;;;20.90;60.20;;;;;;5085671;28;20870;-70
2023/08/10 08:34:21;;;;;;;2.40;1.42;;;21.00;59.90;;;;;;5099871;28;20897;-69
2023/08/10 08:36:49;;;;;;;3.17;1.40;;;21.20;57.30;;;;;;5088635;28;20410;-69
2023/08/10 08:39:16;;;;;;;3.40;1.87;;;21.40;54.90;;;;;;5091855;28;20408;-69
2023/08/10 08:41:43;;;;;;;3.65;1.50;;;21.50;55.50;;;;;;5097332;28;20513;-69
2023/08/10 08:44:10;;;;;;;2.80;1.33;;;21.50;52.50;;;;;;5097642;28;20750;-69
2023/08/10 08:46:40;;;;;;;3.33;1.57;;;21.50;52.00;;;;;;5097291;28;20436;-69
2023/08/10 08:49:07;;;;;;;4.00;1.92;;;21.40;51.40;;;;;;5095207;28;20430;-68
2023/08/10 08:51:35;;;;;;;7.60;3.53;;;21.40;53.30;;;;;;5098175;28;20439;-71
2023/08/10 08:54:04;;;;;;;10.10;6.25;;;21.40;55.50;;;;;;5099719;28;20431;-71
2023/08/10 08:56:30;;;;;;;15.90;9.48;;;21.60;49.30;;;;;;5099732;28;20921;-71
2023/08/10 08:58:57;;;;;;;6.35;3.72;;;21.70;54.60;;;;;;5095838;28;20416;-70
2023/08/10 09:01:25;;;;;;;4.32;1.70;;;21.80;50.10;;;;;;5096929;27;20426;-70
2023/08/10 09:03:51;;;;;;;2.20;1.38;;;21.90;50.10;;;;;;5100756;28;20727;-70
2023/08/10 09:06:18;;;;;;;3.40;1.30;;;22.10;51.90;;;;;;5097814;28;20439;-70
2023/08/10 09:08:45;;;;;;;2.50;1.80;;;22.20;50.40;;;;;;5098654;28;20474;-70
2023/08/10 09:11:13;;;;;;;3.10;1.40;;;22.30;51.10;;;;;;5091947;28;20432;-70
2023/08/10 09:13:40;;;;;;;2.80;1.38;;;22.40;50.10;;;;;;5101103;28;20428;-69
2023/08/10 09:16:10;;;;;;;2.67;1.30;;;22.50;49.20;;;;;;5091615;28;20429;-70
2023/08/10 09:18:38;;;;;;;1.70;1.15;;;22.60;48.00;;;;;;5095072;28;20431;-69
2023/08/10 09:21:14;;;;;;;2.03;1.27;;;22.80;47.00;;;;;;5098564;28;20431;-69
2023/08/10 09:23:42;;;;;;;4.35;1.40;;;22.90;47.40;;;;;;5105409;28;20485;-69
2023/08/10 09:26:10;;;;;;;2.10;1.02;;;23.10;45.00;;;;;;5100665;28;20460;-69
2023/08/10 09:28:38;;;;;;;2.72;1.20;;;23.20;43.90;;;;;;5100094;28;20471;-69
2023/08/10 09:31:07;;;;;;;2.40;1.38;;;23.30;45.40;;;;;;5099549;28;20435;-69
2023/08/10 09:33:35;;;;;;;2.55;1.52;;;23.30;44.60;;;;;;5096149;28;20887;-69
2023/08/10 09:36:03;;;;;;;3.40;1.30;;;23.30;44.80;;;;;;5092565;28;20518;-69
2023/08/10 09:38:30;;;;;;;3.00;1.25;;;23.30;45.60;;;;;;5094125;28;20404;-69
2023/08/10 09:41:11;;;;;;;2.65;1.15;;;23.40;43.80;;;;;;5097566;28;20618;-69
2023/08/10 09:43:40;;;;;;;3.40;1.00;;;23.50;44.10;;;;;;5096966;28;20420;-69
2023/08/10 09:46:09;;;;;;;2.90;1.67;;;23.70;43.60;;;;;;5097388;27;20476;-69
2023/08/10 09:48:36;;;;;;;2.80;1.27;;;23.70;42.60;;;;;;5094405;28;20438;-70
2023/08/10 09:51:04;;;;;;;2.08;1.05;;;23.80;42.90;;;;;;5102302;27;20436;-70
2023/08/10 09:53:32;;;;;;;3.00;1.80;;;23.90;42.80;;;;;;5100137;27;20410;-70
2023/08/10 09:55:59;;;;;;;2.60;1.20;;;24.00;43.60;;;;;;5100019;28;20427;-69
2023/08/10 09:58:26;;;;;;;2.70;1.35;;;24.10;43.80;;;;;;5097885;28;20582;-69
2023/08/10 10:00:54;;;;;;;2.80;1.30;;;24.10;43.50;;;;;;5091599;28;20441;-70
2023/08/10 10:03:22;;;;;;;2.28;1.30;;;24.10;42.70;;;;;;5092233;28;20460;-70
2023/08/10 10:05:51;;;;;;;2.93;1.60;;;24.20;42.60;;;;;;5097804;28;20449;-69
2023/08/10 10:08:18;;;;;;;2.20;1.20;;;24.30;40.60;;;;;;5099790;27;20528;-69
2023/08/10 10:10:45;;;;;;;3.05;1.42;;;24.50;43.10;;;;;;5091441;28;20509;-69
2023/08/10 10:13:12;;;;;;;2.50;1.60;;;24.50;44.50;;;;;;5097137;27;20504;-70
2023/08/10 10:15:40;;;;;;;4.60;1.70;;;24.50;42.60;;;;;;5093503;28;20584;-71
2023/08/10 10:18:09;;;;;;;1.60;1.23;;;24.50;41.50;;;;;;5092202;28;20749;-71
2023/08/10 10:20:40;;;;;;;2.20;1.65;;;24.70;42.20;;;;;;5095586;28;20432;-69
2023/08/10 10:23:13;;;;;;;2.95;1.60;;;24.70;39.80;;;;;;5096197;28;20500;-70
2023/08/10 10:25:40;;;;;;;3.67;1.95;;;24.70;42.10;;;;;;5089325;28;20464;-69
2023/08/10 10:28:14;;;;;;;2.58;1.55;;;24.80;41.70;;;;;;5097798;28;20508;-71
2023/08/10 10:30:54;;;;;;;2.17;1.60;;;25.00;40.60;;;;;;5095158;27;20965;-70
2023/08/10 10:33:23;;;;;;;2.50;1.30;;;25.10;41.50;;;;;;5095375;28;21102;-70
2023/08/10 10:36:12;;;;;;;3.22;1.70;;;25.00;42.00;;;;;;5102669;28;20424;-70
2023/08/10 10:38:40;;;;;;;3.30;1.95;;;25.00;40.90;;;;;;5101160;28;20798;-73
2023/08/10 10:41:14;;;;;;;3.13;1.60;;;25.20;40.60;;;;;;5098473;28;20507;-72
2023/08/10 10:43:40;;;;;;;3.03;1.88;;;25.20;40.90;;;;;;5103764;28;20535;-70
2023/08/10 10:46:07;;;;;;;2.95;1.42;;;25.20;41.10;;;;;;5096447;28;20444;-70
2023/08/10 10:48:36;;;;;;;2.70;1.80;;;25.20;40.70;;;;;;5097782;28;20435;-72
2023/08/10 10:51:04;;;;;;;3.70;1.80;;;25.20;41.10;;;;;;5099437;28;20827;-73
2023/08/10 10:53:33;;;;;;;2.90;1.80;;;25.20;41.40;;;;;;5099871;28;20439;-72
2023/08/10 10:56:00;;;;;;;4.05;2.30;;;25.30;41.30;;;;;;5100431;28;20424;-70
2023/08/10 10:58:29;;;;;;;2.70;1.90;;;25.40;41.30;;;;;;5096007;28;20993;-72
2023/08/10 11:00:56;;;;;;;3.60;2.20;;;25.40;40.70;;;;;;5099523;28;20516;-72
2023/08/10 11:03:22;;;;;;;3.15;2.15;;;25.40;40.70;;;;;;5099986;28;20448;-71
2023/08/10 11:05:51;;;;;;;2.33;1.90;;;25.40;41.00;;;;;;5095018;28;20468;-71
2023/08/10 11:08:17;;;;;;;3.63;2.20;;;25.50;41.10;;;;;;5101296;27;20416;-72
2023/08/10 11:10:44;;;;;;;3.10;1.85;;;25.50;40.90;;;;;;5099266;27;20419;-72
2023/08/10 11:13:13;;;;;;;3.72;2.15;;;25.60;41.20;;;;;;5096672;28;21868;-72
2023/08/10 11:15:40;;;;;;;2.70;1.98;;;25.70;41.20;;;;;;5091222;28;20862;-72
2023/08/10 11:18:11;;;;;;;2.80;2.30;;;25.70;40.60;;;;;;5095794;28;20533;-72
2023/08/10 11:20:43;;;;;;;3.97;2.50;;;25.70;39.90;;;;;;5098223;27;20444;-72
2023/08/10 11:23:11;;;;;;;2.80;2.10;;;25.80;39.30;;;;;;5096870;28;20424;-72
2023/08/10 11:25:48;;;;;;;4.10;2.30;;;25.90;40.80;;;;;;5093078;28;20890;-73
2023/08/10 11:28:16;;;;;;;3.15;2.50;;;26.00;40.40;;;;;;5095938;28;20705;-72
2023/08/10 11:30:44;;;;;;;2.80;2.33;;;26.00;40.40;;;;;;5094919;28;20436;-72
2023/08/10 11:33:11;;;;;;;3.53;2.03;;;25.90;40.60;;;;;;5100963;28;20453;-71
2023/08/10 11:35:37;;;;;;;2.65;2.38;;;26.00;41.00;;;;;;5095678;28;20429;-71
2023/08/10 11:38:05;;;;;;;2.83;1.90;;;26.00;40.40;;;;;;5103601;28;20408;-71
2023/08/10 11:40:33;;;;;;;3.80;2.40;;;26.10;41.00;;;;;;5097990;28;20457;-71
2023/08/10 11:43:07;;;;;;;3.10;2.10;;;26.30;40.30;;;;;;5093842;28;20419;-70
2023/08/10 11:45:34;;;;;;;3.58;2.20;;;26.30;40.30;;;;;;5095885;28;20862;-70
2023/08/10 11:48:01;;;;;;;2.80;2.00;;;26.40;40.30;;;;;;5101510;27;20428;-71
2023/08/10 11:50:30;;;;;;;2.83;1.90;;;26.50;40.10;;;;;;5099714;28;20814;-70
2023/08/10 11:52:58;;;;;;;2.75;2.05;;;26.60;40.50;;;;;;5105768;27;20758;-70
2023/08/10 11:55:28;;;;;;;49.33;28.77;;;26.90;40.20;;;;;;5097696;28;20911;-70
2023/08/10 11:57:58;;;;;;;252.40;147.95;;;27.10;39.50;;;;;;5100478;28;20400;-70
2023/08/10 12:00:28;;;;;;;1042.78;637.80;;;27.30;39.70;;;;;;5094345;27;20572;-71
2023/08/10 12:03:00;;;;;;;250.25;165.40;;;27.40;40.10;;;;;;5099593;28;20428;-71
2023/08/10 12:05:36;;;;;;;183.13;125.53;;;27.50;39.30;;;;;;5096933;28;20426;-69
2023/08/10 12:08:03;;;;;;;210.50;140.40;;;27.40;38.50;;;;;;5100972;28;20889;-71
2023/08/10 12:10:35;;;;;;;122.47;86.37;;;27.50;38.90;;;;;;5094089;28;20418;-70
2023/08/10 12:13:04;;;;;;;99.50;69.45;;;27.70;38.40;;;;;;5098049;28;20440;-69
2023/08/10 12:15:31;;;;;;;70.15;43.42;;;28.00;37.30;;;;;;5088235;28;20802;-69
2023/08/10 12:17:59;;;;;;;41.53;29.27;;;28.10;38.40;;;;;;5097337;27;20467;-69
2023/08/10 12:20:27;;;;;;;31.17;20.73;;;28.20;37.60;;;;;;5094208;28;20451;-70
2023/08/10 12:22:53;;;;;;;20.45;13.30;;;28.00;38.10;;;;;;5096347;28;20435;-69
2023/08/10 12:25:20;;;;;;;7.72;5.45;;;28.10;37.40;;;;;;5094603;28;20535;-69
2023/08/10 12:27:47;;;;;;;17.77;12.93;;;28.30;35.80;;;;;;5095509;28;20430;-69
2023/08/10 12:30:16;;;;;;;11.85;8.63;;;28.50;37.00;;;;;;5087636;28;20431;-70
2023/08/10 12:32:43;;;;;;;10.05;6.78;;;28.60;36.70;;;;;;5084996;28;20481;-68
2023/08/10 12:35:11;;;;;;;5.78;3.80;;;28.80;36.20;;;;;;5089190;28;20436;-69
2023/08/10 12:37:38;;;;;;;4.65;3.60;;;28.90;34.70;;;;;;5087611;28;21147;-67
2023/08/10 12:40:06;;;;;;;4.40;2.90;;;28.90;34.80;;;;;;5090072;28;20424;-69
2023/08/10 12:42:33;;;;;;;3.75;2.95;;;28.70;34.70;;;;;;5094416;28;20420;-69
2023/08/10 12:45:00;;;;;;;5.13;3.55;;;28.60;35.10;;;;;;5090992;28;20848;-69
2023/08/10 12:47:28;;;;;;;3.90;2.88;;;28.60;36.50;;;;;;5087161;28;20747;-64